sensor_id;sensor_type;location;lat;lon;timestamp;temperature;humidity
52531;DHT22;38441;52.894;6.040;2023-07-29T10:37:52;21.00;99.90
52531;DHT22;38441;52.894;6.040;2023-07-29T10:40:19;20.90;99.90
52531;DHT22;38441;52.894;6.040;2023-07-29T10:43:03;20.80;99.90
52531;DHT22;38441;52.894;6.040;2023-07-29T10:48:11;20.80;99.90
52531;DHT22;38441;52.894;6.040;2023-07-29T10:50:37;20.70;99.90
52531;DHT22;38441;52.894;6.040;2023-07-29T10:53:13;20.90;99.90
52531;DHT22;38441;52.894;6.040;2023-07-29T10:55:43;21.00;99.90
52531;DHT22;38441;52.894;6.040;2023-07-29T10:58:13;21.00;99.90
52531;DHT22;38441;52.894;6.040;2023-07-29T11:00:44;21.10;99.90
52531;DHT22;38441;52.894;6.040;2023-07-29T11:03:11;21.50;99.90
52531;DHT22;38441;52.894;6.040;2023-07-29T11:05:50;21.60;99.90
52531;DHT22;38441;52.894;6.040;2023-07-29T11:08:36;21.60;99.90
52531;DHT22;38441;52.894;6.040;2023-07-29T11:13:30;21.90;99.90
52531;DHT22;38441;52.894;6.040;2023-07-29T11:15:56;21.80;99.90
52531;DHT22;38441;52.894;6.040;2023-07-29T11:18:32;21.70;99.90
52531;DHT22;38441;52.894;6.040;2023-07-29T11:21:00;21.70;99.90
52531;DHT22;38441;52.894;6.040;2023-07-29T11:23:31;21.40;99.90
52531;DHT22;38441;52.894;6.040;2023-07-29T11:25:57;21.30;99.90
52531;DHT22;38441;52.894;6.040;2023-07-29T11:28:24;21.20;99.90
52531;DHT22;38441;52.894;6.040;2023-07-29T11:30:50;21.10;99.90
52531;DHT22;38441;52.894;6.040;2023-07-29T11:33:21;21.40;99.90
52531;DHT22;38441;52.894;6.040;2023-07-29T11:35:47;21.20;99.90
52531;DHT22;38441;52.894;6.040;2023-07-29T11:38:18;21.40;99.90
52531;DHT22;38441;52.894;6.040;2023-07-29T11:40:55;21.50;99.90
52531;DHT22;38441;52.894;6.040;2023-07-29T11:43:21;21.80;99.90
52531;DHT22;38441;52.894;6.040;2023-07-29T11:45:47;21.90;99.90
52531;DHT22;38441;52.894;6.040;2023-07-29T11:48:12;22.20;99.90
52531;DHT22;38441;52.894;6.040;2023-07-29T11:50:38;22.00;99.90
52531;DHT22;38441;52.894;6.040;2023-07-29T11:53:05;22.00;99.90
52531;DHT22;38441;52.894;6.040;2023-07-29T11:55:30;22.20;99.90
52531;DHT22;38441;52.894;6.040;2023-07-29T11:57:56;22.30;99.90
52531;DHT22;38441;52.894;6.040;2023-07-29T12:00:22;22.00;99.90
52531;DHT22;38441;52.894;6.040;2023-07-29T12:02:49;22.10;99.90
52531;DHT22;38441;52.894;6.040;2023-07-29T12:05:15;22.00;99.90
52531;DHT22;38441;52.894;6.040;2023-07-29T12:07:43;22.10;99.90
52531;DHT22;38441;52.894;6.040;2023-07-29T12:10:10;21.80;99.90
52531;DHT22;38441;52.894;6.040;2023-07-29T12:12:46;21.70;99.90
52531;DHT22;38441;52.894;6.040;2023-07-29T12:15:12;21.80;99.90
52531;DHT22;38441;52.894;6.040;2023-07-29T12:17:40;21.80;99.90
52531;DHT22;38441;52.894;6.040;2023-07-29T12:20:08;21.70;99.90
52531;DHT22;38441;52.894;6.040;2023-07-29T12:22:34;22.00;99.90
52531;DHT22;38441;52.894;6.040;2023-07-29T12:25:01;21.80;99.90
52531;DHT22;38441;52.894;6.040;2023-07-29T12:27:30;21.90;99.90
52531;DHT22;38441;52.894;6.040;2023-07-29T12:29:56;22.00;99.90
52531;DHT22;38441;52.894;6.040;2023-07-29T12:32:25;21.80;99.90
52531;DHT22;38441;52.894;6.040;2023-07-29T12:34:53;21.90;99.90
52531;DHT22;38441;52.894;6.040;2023-07-29T12:37:19;21.90;99.90
52531;DHT22;38441;52.894;6.040;2023-07-29T12:39:44;23.10;99.90
52531;DHT22;38441;52.894;6.040;2023-07-29T12:42:10;22.00;99.90
52531;DHT22;38441;52.894;6.040;2023-07-29T12:44:37;22.30;99.90
52531;DHT22;38441;52.894;6.040;2023-07-29T12:47:05;22.30;99.90
52531;DHT22;38441;52.894;6.040;2023-07-29T12:49:32;22.50;99.90
52531;DHT22;38441;52.894;6.040;2023-07-29T12:51:58;22.50;99.90
52531;DHT22;38441;52.894;6.040;2023-07-29T12:54:23;22.40;99.90
52531;DHT22;38441;52.894;6.040;2023-07-29T12:56:49;22.50;99.90
52531;DHT22;38441;52.894;6.040;2023-07-29T12:59:15;22.70;99.90
52531;DHT22;38441;52.894;6.040;2023-07-29T13:01:41;22.90;99.90
52531;DHT22;38441;52.894;6.040;2023-07-29T13:04:07;22.90;99.90
52531;DHT22;38441;52.894;6.040;2023-07-29T13:06:32;22.90;99.90
52531;DHT22;38441;52.894;6.040;2023-07-29T13:08:58;22.90;99.90
52531;DHT22;38441;52.894;6.040;2023-07-29T13:11:24;22.90;99.90
52531;DHT22;38441;52.894;6.040;2023-07-29T13:13:49;22.80;99.90
52531;DHT22;38441;52.894;6.040;2023-07-29T13:16:15;22.70;99.90
52531;DHT22;38441;52.894;6.040;2023-07-29T13:18:41;22.50;99.90
52531;DHT22;38441;52.894;6.040;2023-07-29T13:21:08;22.70;99.90
52531;DHT22;38441;52.894;6.040;2023-07-29T13:23:33;22.70;99.90
52531;DHT22;38441;52.894;6.040;2023-07-29T13:25:59;22.40;99.90
52531;DHT22;38441;52.894;6.040;2023-07-29T13:28:25;22.80;99.90
52531;DHT22;38441;52.894;6.040;2023-07-29T13:30:50;23.20;99.90
52531;DHT22;38441;52.894;6.040;2023-07-29T13:33:16;23.00;99.90
52531;DHT22;38441;52.894;6.040;2023-07-29T13:35:42;23.40;99.90
52531;DHT22;38441;52.894;6.040;2023-07-29T13:38:08;23.30;99.90
52531;DHT22;38441;52.894;6.040;2023-07-29T13:40:33;23.10;99.90
52531;DHT22;38441;52.894;6.040;2023-07-29T13:42:59;23.20;99.90
52531;DHT22;38441;52.894;6.040;2023-07-29T13:45:25;23.00;99.90
52531;DHT22;38441;52.894;6.040;2023-07-29T13:47:50;23.10;99.90
52531;DHT22;38441;52.894;6.040;2023-07-29T13:50:19;23.10;99.90
52531;DHT22;38441;52.894;6.040;2023-07-29T13:52:45;23.00;99.90
52531;DHT22;38441;52.894;6.040;2023-07-29T13:55:11;22.90;99.90
52531;DHT22;38441;52.894;6.040;2023-07-29T13:57:37;23.00;99.90
52531;DHT22;38441;52.894;6.040;2023-07-29T14:00:04;23.20;99.90
52531;DHT22;38441;52.894;6.040;2023-07-29T14:02:30;23.10;99.90
52531;DHT22;38441;52.894;6.040;2023-07-29T14:04:56;22.90;99.90
52531;DHT22;38441;52.894;6.040;2023-07-29T14:07:22;22.50;99.90
52531;DHT22;38441;52.894;6.040;2023-07-29T14:09:48;22.60;99.90
52531;DHT22;38441;52.894;6.040;2023-07-29T14:12:13;22.50;99.90
52531;DHT22;38441;52.894;6.040;2023-07-29T14:14:44;22.50;99.90
52531;DHT22;38441;52.894;6.040;2023-07-29T14:17:09;22.50;99.90
52531;DHT22;38441;52.894;6.040;2023-07-29T14:19:36;22.80;99.90
52531;DHT22;38441;52.894;6.040;2023-07-29T14:24:28;22.60;99.90
52531;DHT22;38441;52.894;6.040;2023-07-29T14:26:53;22.50;99.90
52531;DHT22;38441;52.894;6.040;2023-07-29T14:29:19;22.70;99.90
52531;DHT22;38441;52.894;6.040;2023-07-29T14:31:45;22.70;99.90
52531;DHT22;38441;52.894;6.040;2023-07-29T14:34:10;22.80;99.90
52531;DHT22;38441;52.894;6.040;2023-07-29T14:36:36;23.10;99.90
52531;DHT22;38441;52.894;6.040;2023-07-29T14:39:02;23.00;99.90
52531;DHT22;38441;52.894;6.040;2023-07-29T14:41:27;22.90;99.90
52531;DHT22;38441;52.894;6.040;2023-07-29T14:43:53;23.10;99.90
52531;DHT22;38441;52.894;6.040;2023-07-29T14:48:54;23.30;99.90
52531;DHT22;38441;52.894;6.040;2023-07-29T14:51:19;23.10;99.90
52531;DHT22;38441;52.894;6.040;2023-07-29T14:53:45;23.10;99.90
52531;DHT22;38441;52.894;6.040;2023-07-29T14:56:11;23.10;99.90
52531;DHT22;38441;52.894;6.040;2023-07-29T14:58:39;23.30;99.90
52531;DHT22;38441;52.894;6.040;2023-07-29T15:01:04;23.00;99.90
52531;DHT22;38441;52.894;6.040;2023-07-29T15:03:30;23.10;99.90
52531;DHT22;38441;52.894;6.040;2023-07-29T15:05:55;23.10;99.90
52531;DHT22;38441;52.894;6.040;2023-07-29T15:08:21;23.00;99.90
52531;DHT22;38441;52.894;6.040;2023-07-29T15:10:47;23.30;99.90
52531;DHT22;38441;52.894;6.040;2023-07-29T15:13:14;23.20;99.90
52531;DHT22;38441;52.894;6.040;2023-07-29T15:15:43;23.20;99.90
52531;DHT22;38441;52.894;6.040;2023-07-29T15:18:09;23.10;99.90
52531;DHT22;38441;52.894;6.040;2023-07-29T15:20:35;23.00;99.90
52531;DHT22;38441;52.894;6.040;2023-07-29T15:23:01;22.90;99.90
52531;DHT22;38441;52.894;6.040;2023-07-29T15:25:26;22.90;99.90
52531;DHT22;38441;52.894;6.040;2023-07-29T15:27:52;22.70;99.90
52531;DHT22;38441;52.894;6.040;2023-07-29T15:30:17;22.70;99.90
52531;DHT22;38441;52.894;6.040;2023-07-29T15:32:43;22.90;99.90
52531;DHT22;38441;52.894;6.040;2023-07-29T15:35:10;22.80;99.90
52531;DHT22;38441;52.894;6.040;2023-07-29T15:37:36;22.90;99.90
52531;DHT22;38441;52.894;6.040;2023-07-29T15:40:02;22.60;99.90
52531;DHT22;38441;52.894;6.040;2023-07-29T15:42:27;22.20;99.90
52531;DHT22;38441;52.894;6.040;2023-07-29T15:44:53;22.50;99.90
52531;DHT22;38441;52.894;6.040;2023-07-29T15:47:18;22.50;99.90
52531;DHT22;38441;52.894;6.040;2023-07-29T15:49:45;22.70;99.90
52531;DHT22;38441;52.894;6.040;2023-07-29T15:52:10;22.50;99.90
52531;DHT22;38441;52.894;6.040;2023-07-29T15:54:39;22.90;99.90
52531;DHT22;38441;52.894;6.040;2023-07-29T15:57:05;22.50;99.90
52531;DHT22;38441;52.894;6.040;2023-07-29T15:59:30;22.30;99.90
52531;DHT22;38441;52.894;6.040;2023-07-29T16:01:56;22.20;99.90
52531;DHT22;38441;52.894;6.040;2023-07-29T16:04:22;22.30;99.90
52531;DHT22;38441;52.894;6.040;2023-07-29T16:06:47;22.20;99.90
52531;DHT22;38441;52.894;6.040;2023-07-29T16:09:13;22.10;99.90
52531;DHT22;38441;52.894;6.040;2023-07-29T16:11:39;22.10;99.90
52531;DHT22;38441;52.894;6.040;2023-07-29T16:14:04;22.10;99.90
52531;DHT22;38441;52.894;6.040;2023-07-29T16:16:30;21.90;99.90
52531;DHT22;38441;52.894;6.040;2023-07-29T16:18:55;22.20;99.90
52531;DHT22;38441;52.894;6.040;2023-07-29T16:21:21;22.20;99.90
52531;DHT22;38441;52.894;6.040;2023-07-29T16:23:47;21.90;99.90
52531;DHT22;38441;52.894;6.040;2023-07-29T16:26:19;22.00;99.90
52531;DHT22;38441;52.894;6.040;2023-07-29T16:28:44;22.00;99.90
52531;DHT22;38441;52.894;6.040;2023-07-29T16:31:10;21.80;99.90
52531;DHT22;38441;52.894;6.040;2023-07-29T16:33:35;21.70;99.90
52531;DHT22;38441;52.894;6.040;2023-07-29T16:36:01;22.10;99.90
52531;DHT22;38441;52.894;6.040;2023-07-29T16:38:26;22.00;99.90
52531;DHT22;38441;52.894;6.040;2023-07-29T16:40:52;21.90;99.90
52531;DHT22;38441;52.894;6.040;2023-07-29T16:43:18;22.00;99.90
52531;DHT22;38441;52.894;6.040;2023-07-29T16:45:43;21.80;99.90
52531;DHT22;38441;52.894;6.040;2023-07-29T16:48:09;22.00;99.90
52531;DHT22;38441;52.894;6.040;2023-07-29T16:50:34;22.00;99.90
52531;DHT22;38441;52.894;6.040;2023-07-29T16:53:00;21.90;99.90
52531;DHT22;38441;52.894;6.040;2023-07-29T16:55:26;21.80;99.90
52531;DHT22;38441;52.894;6.040;2023-07-29T16:57:51;21.60;99.90
52531;DHT22;38441;52.894;6.040;2023-07-29T17:00:18;21.60;99.90
52531;DHT22;38441;52.894;6.040;2023-07-29T17:02:44;21.80;99.90
52531;DHT22;38441;52.894;6.040;2023-07-29T17:05:09;21.70;99.90
52531;DHT22;38441;52.894;6.040;2023-07-29T17:07:35;21.30;99.90
52531;DHT22;38441;52.894;6.040;2023-07-29T17:10:01;21.40;99.90
52531;DHT22;38441;52.894;6.040;2023-07-29T17:12:26;21.10;99.90
52531;DHT22;38441;52.894;6.040;2023-07-29T17:14:52;21.40;99.90
52531;DHT22;38441;52.894;6.040;2023-07-29T17:17:18;21.50;99.90
52531;DHT22;38441;52.894;6.040;2023-07-29T17:19:43;21.10;99.90
52531;DHT22;38441;52.894;6.040;2023-07-29T17:22:10;21.40;99.90
52531;DHT22;38441;52.894;6.040;2023-07-29T17:24:36;21.00;99.90
52531;DHT22;38441;52.894;6.040;2023-07-29T17:27:01;21.10;99.90
52531;DHT22;38441;52.894;6.040;2023-07-29T17:29:27;21.20;99.90
52531;DHT22;38441;52.894;6.040;2023-07-29T17:31:53;20.80;99.90
52531;DHT22;38441;52.894;6.040;2023-07-29T17:34:18;21.20;99.90
52531;DHT22;38441;52.894;6.040;2023-07-29T17:36:46;20.80;99.90
52531;DHT22;38441;52.894;6.040;2023-07-29T17:39:11;20.80;99.90
52531;DHT22;38441;52.894;6.040;2023-07-29T17:41:37;20.90;99.90
52531;DHT22;38441;52.894;6.040;2023-07-29T17:44:03;20.70;99.90
52531;DHT22;38441;52.894;6.040;2023-07-29T17:46:28;20.80;99.90
52531;DHT22;38441;52.894;6.040;2023-07-29T17:48:54;20.80;99.90
52531;DHT22;38441;52.894;6.040;2023-07-29T17:51:19;20.70;99.90
52531;DHT22;38441;52.894;6.040;2023-07-29T17:53:45;20.70;99.90
52531;DHT22;38441;52.894;6.040;2023-07-29T17:56:11;20.60;99.90
52531;DHT22;38441;52.894;6.040;2023-07-29T17:58:36;20.50;99.90
52531;DHT22;38441;52.894;6.040;2023-07-29T18:01:03;20.50;99.90
52531;DHT22;38441;52.894;6.040;2023-07-29T18:03:29;20.60;99.90
52531;DHT22;38441;52.894;6.040;2023-07-29T18:05:54;20.50;99.90
52531;DHT22;38441;52.894;6.040;2023-07-29T18:08:20;20.50;99.90
52531;DHT22;38441;52.894;6.040;2023-07-29T18:10:46;20.30;99.90
52531;DHT22;38441;52.894;6.040;2023-07-29T18:13:11;20.30;99.90
52531;DHT22;38441;52.894;6.040;2023-07-29T18:15:37;20.40;99.90
52531;DHT22;38441;52.894;6.040;2023-07-29T18:18:03;20.30;99.90
52531;DHT22;38441;52.894;6.040;2023-07-29T18:20:29;20.30;99.90
52531;DHT22;38441;52.894;6.040;2023-07-29T18:22:55;20.40;99.90
52531;DHT22;38441;52.894;6.040;2023-07-29T18:25:26;20.20;99.90
52531;DHT22;38441;52.894;6.040;2023-07-29T18:27:52;20.20;99.90
52531;DHT22;38441;52.894;6.040;2023-07-29T18:30:17;20.00;99.90
52531;DHT22;38441;52.894;6.040;2023-07-29T18:32:43;20.20;99.90
52531;DHT22;38441;52.894;6.040;2023-07-29T18:35:12;20.10;99.90
52531;DHT22;38441;52.894;6.040;2023-07-29T18:37:47;20.10;99.90
52531;DHT22;38441;52.894;6.040;2023-07-29T18:40:13;20.00;99.90
52531;DHT22;38441;52.894;6.040;2023-07-29T18:42:39;20.10;99.90
52531;DHT22;38441;52.894;6.040;2023-07-29T18:45:06;20.00;99.90
52531;DHT22;38441;52.894;6.040;2023-07-29T18:47:32;20.20;99.90
52531;DHT22;38441;52.894;6.040;2023-07-29T18:49:59;20.00;99.90
52531;DHT22;38441;52.894;6.040;2023-07-29T18:52:25;20.00;99.90
52531;DHT22;38441;52.894;6.040;2023-07-29T18:54:51;19.90;99.90
52531;DHT22;38441;52.894;6.040;2023-07-29T18:57:17;20.10;99.90
52531;DHT22;38441;52.894;6.040;2023-07-29T18:59:43;19.60;99.90
52531;DHT22;38441;52.894;6.040;2023-07-29T19:02:09;19.80;99.90
52531;DHT22;38441;52.894;6.040;2023-07-29T19:04:34;19.80;99.90
52531;DHT22;38441;52.894;6.040;2023-07-29T19:07:00;19.80;99.90
52531;DHT22;38441;52.894;6.040;2023-07-29T19:09:26;19.90;99.90
52531;DHT22;38441;52.894;6.040;2023-07-29T19:11:52;19.60;99.90
52531;DHT22;38441;52.894;6.040;2023-07-29T19:14:18;19.50;99.90
52531;DHT22;38441;52.894;6.040;2023-07-29T19:16:43;20.20;99.90
52531;DHT22;38441;52.894;6.040;2023-07-29T19:19:09;19.80;99.90
52531;DHT22;38441;52.894;6.040;2023-07-29T19:21:37;19.60;99.90
52531;DHT22;38441;52.894;6.040;2023-07-29T19:24:03;19.50;99.90
52531;DHT22;38441;52.894;6.040;2023-07-29T19:26:28;19.70;99.90
52531;DHT22;38441;52.894;6.040;2023-07-29T19:28:54;19.50;99.90
52531;DHT22;38441;52.894;6.040;2023-07-29T19:31:20;19.40;99.90
52531;DHT22;38441;52.894;6.040;2023-07-29T19:33:45;19.20;99.90
52531;DHT22;38441;52.894;6.040;2023-07-29T19:36:11;19.30;99.90
52531;DHT22;38441;52.894;6.040;2023-07-29T19:38:38;19.30;99.90
52531;DHT22;38441;52.894;6.040;2023-07-29T19:41:04;19.20;99.90
52531;DHT22;38441;52.894;6.040;2023-07-29T19:43:29;19.20;99.90
52531;DHT22;38441;52.894;6.040;2023-07-29T19:45:57;19.10;99.90
52531;DHT22;38441;52.894;6.040;2023-07-29T19:48:22;19.30;99.90
52531;DHT22;38441;52.894;6.040;2023-07-29T19:50:48;19.10;99.90
52531;DHT22;38441;52.894;6.040;2023-07-29T19:53:13;19.00;99.90
52531;DHT22;38441;52.894;6.040;2023-07-29T19:55:39;18.90;99.90
52531;DHT22;38441;52.894;6.040;2023-07-29T19:58:05;19.20;99.90
52531;DHT22;38441;52.894;6.040;2023-07-29T20:00:31;18.80;99.90
52531;DHT22;38441;52.894;6.040;2023-07-29T20:02:58;18.80;99.90
52531;DHT22;38441;52.894;6.040;2023-07-29T20:05:27;19.00;99.90
52531;DHT22;38441;52.894;6.040;2023-07-29T20:07:53;18.80;99.90
52531;DHT22;38441;52.894;6.040;2023-07-29T20:12:46;18.70;99.90
52531;DHT22;38441;52.894;6.040;2023-07-29T20:15:11;18.70;99.90
52531;DHT22;38441;52.894;6.040;2023-07-29T20:17:37;18.70;99.90
52531;DHT22;38441;52.894;6.040;2023-07-29T20:20:03;18.50;99.90
52531;DHT22;38441;52.894;6.040;2023-07-29T20:22:28;18.40;99.90
52531;DHT22;38441;52.894;6.040;2023-07-29T20:27:43;18.60;99.90
52531;DHT22;38441;52.894;6.040;2023-07-29T20:30:09;18.60;99.90
52531;DHT22;38441;52.894;6.040;2023-07-29T20:32:34;18.60;99.90
52531;DHT22;38441;52.894;6.040;2023-07-29T20:35:02;18.60;99.90
52531;DHT22;38441;52.894;6.040;2023-07-29T20:37:27;18.40;99.90
52531;DHT22;38441;52.894;6.040;2023-07-29T20:39:53;18.30;99.90
52531;DHT22;38441;52.894;6.040;2023-07-29T20:42:19;18.50;99.90
52531;DHT22;38441;52.894;6.040;2023-07-29T20:44:44;18.60;99.90
52531;DHT22;38441;52.894;6.040;2023-07-29T20:47:10;18.30;99.90
52531;DHT22;38441;52.894;6.040;2023-07-29T20:49:36;18.20;99.90
52531;DHT22;38441;52.894;6.040;2023-07-29T20:52:02;18.20;99.90
52531;DHT22;38441;52.894;6.040;2023-07-29T20:54:28;19.10;99.90
52531;DHT22;38441;52.894;6.040;2023-07-29T20:56:53;18.20;99.90
52531;DHT22;38441;52.894;6.040;2023-07-29T20:59:19;18.10;99.90
52531;DHT22;38441;52.894;6.040;2023-07-29T21:01:45;18.30;99.90
52531;DHT22;38441;52.894;6.040;2023-07-29T21:04:11;18.20;99.90
52531;DHT22;38441;52.894;6.040;2023-07-29T21:06:36;18.20;99.90
52531;DHT22;38441;52.894;6.040;2023-07-29T21:09:03;18.20;99.90
52531;DHT22;38441;52.894;6.040;2023-07-29T21:11:30;18.30;99.90
52531;DHT22;38441;52.894;6.040;2023-07-29T21:13:55;18.30;99.90
52531;DHT22;38441;52.894;6.040;2023-07-29T21:16:52;18.30;99.90
52531;DHT22;38441;52.894;6.040;2023-07-29T21:19:18;18.10;99.90
52531;DHT22;38441;52.894;6.040;2023-07-29T21:21:44;18.10;99.90
52531;DHT22;38441;52.894;6.040;2023-07-29T21:24:11;18.10;99.90
52531;DHT22;38441;52.894;6.040;2023-07-29T21:26:36;18.20;99.90
52531;DHT22;38441;52.894;6.040;2023-07-29T21:29:02;18.30;99.90
52531;DHT22;38441;52.894;6.040;2023-07-29T21:31:28;18.10;99.90
52531;DHT22;38441;52.894;6.040;2023-07-29T21:33:54;17.90;99.90
52531;DHT22;38441;52.894;6.040;2023-07-29T21:36:19;18.00;99.90
52531;DHT22;38441;52.894;6.040;2023-07-29T21:38:45;18.10;99.90
52531;DHT22;38441;52.894;6.040;2023-07-29T21:41:11;18.00;99.90
52531;DHT22;38441;52.894;6.040;2023-07-29T21:43:36;17.90;99.90
52531;DHT22;38441;52.894;6.040;2023-07-29T21:46:02;18.00;99.90
52531;DHT22;38441;52.894;6.040;2023-07-29T21:48:30;17.90;99.90
52531;DHT22;38441;52.894;6.040;2023-07-29T21:50:56;18.20;99.90
52531;DHT22;38441;52.894;6.040;2023-07-29T21:53:21;18.00;99.90
52531;DHT22;38441;52.894;6.040;2023-07-29T21:55:47;17.70;99.90
52531;DHT22;38441;52.894;6.040;2023-07-29T21:58:13;17.80;99.90
52531;DHT22;38441;52.894;6.040;2023-07-29T22:00:39;17.70;99.90
52531;DHT22;38441;52.894;6.040;2023-07-29T22:03:04;18.00;99.90
52531;DHT22;38441;52.894;6.040;2023-07-29T22:05:30;17.80;99.90
52531;DHT22;38441;52.894;6.040;2023-07-29T22:07:56;17.80;99.90
52531;DHT22;38441;52.894;6.040;2023-07-29T22:10:22;18.00;99.90
52531;DHT22;38441;52.894;6.040;2023-07-29T22:12:47;18.00;99.90
52531;DHT22;38441;52.894;6.040;2023-07-29T22:15:13;17.70;99.90
52531;DHT22;38441;52.894;6.040;2023-07-29T22:17:39;17.50;99.90
52531;DHT22;38441;52.894;6.040;2023-07-29T22:20:05;17.80;99.90
52531;DHT22;38441;52.894;6.040;2023-07-29T22:22:30;17.70;99.90
52531;DHT22;38441;52.894;6.040;2023-07-29T22:24:56;17.80;99.90
52531;DHT22;38441;52.894;6.040;2023-07-29T22:27:22;17.50;99.90
52531;DHT22;38441;52.894;6.040;2023-07-29T22:29:47;17.90;99.90
52531;DHT22;38441;52.894;6.040;2023-07-29T22:32:13;17.60;99.90
52531;DHT22;38441;52.894;6.040;2023-07-29T22:34:39;17.70;99.90
52531;DHT22;38441;52.894;6.040;2023-07-29T22:37:05;17.80;99.90
52531;DHT22;38441;52.894;6.040;2023-07-29T22:39:31;17.60;99.90
52531;DHT22;38441;52.894;6.040;2023-07-29T22:41:57;17.60;99.90
52531;DHT22;38441;52.894;6.040;2023-07-29T22:44:23;17.50;99.90
52531;DHT22;38441;52.894;6.040;2023-07-29T22:46:48;17.80;99.90
52531;DHT22;38441;52.894;6.040;2023-07-29T22:49:14;17.50;99.90
52531;DHT22;38441;52.894;6.040;2023-07-29T22:51:40;17.50;99.90
52531;DHT22;38441;52.894;6.040;2023-07-29T22:54:05;17.50;99.90
52531;DHT22;38441;52.894;6.040;2023-07-29T22:56:31;17.50;99.90
52531;DHT22;38441;52.894;6.040;2023-07-29T22:58:56;17.70;99.90
52531;DHT22;38441;52.894;6.040;2023-07-29T23:01:24;17.70;99.90
52531;DHT22;38441;52.894;6.040;2023-07-29T23:03:50;17.50;99.90
52531;DHT22;38441;52.894;6.040;2023-07-29T23:06:15;17.60;99.90
52531;DHT22;38441;52.894;6.040;2023-07-29T23:08:41;17.30;99.90
52531;DHT22;38441;52.894;6.040;2023-07-29T23:11:07;17.50;99.90
52531;DHT22;38441;52.894;6.040;2023-07-29T23:13:32;17.50;99.90
52531;DHT22;38441;52.894;6.040;2023-07-29T23:16:01;17.40;99.90
52531;DHT22;38441;52.894;6.040;2023-07-29T23:18:28;17.30;99.90
52531;DHT22;38441;52.894;6.040;2023-07-29T23:20:54;17.30;99.90
52531;DHT22;38441;52.894;6.040;2023-07-29T23:23:20;17.20;99.90
52531;DHT22;38441;52.894;6.040;2023-07-29T23:25:45;17.30;99.90
52531;DHT22;38441;52.894;6.040;2023-07-29T23:28:11;17.10;99.90
52531;DHT22;38441;52.894;6.040;2023-07-29T23:30:37;17.30;99.90
52531;DHT22;38441;52.894;6.040;2023-07-29T23:33:04;17.20;99.90
52531;DHT22;38441;52.894;6.040;2023-07-29T23:35:29;17.10;99.90
52531;DHT22;38441;52.894;6.040;2023-07-29T23:37:56;17.20;99.90
52531;DHT22;38441;52.894;6.040;2023-07-29T23:40:21;17.20;99.90
52531;DHT22;38441;52.894;6.040;2023-07-29T23:42:47;17.20;99.90
52531;DHT22;38441;52.894;6.040;2023-07-29T23:45:13;17.20;99.90
52531;DHT22;38441;52.894;6.040;2023-07-29T23:47:39;17.10;99.90
52531;DHT22;38441;52.894;6.040;2023-07-29T23:50:05;17.20;99.90
52531;DHT22;38441;52.894;6.040;2023-07-29T23:52:31;17.00;99.90
52531;DHT22;38441;52.894;6.040;2023-07-29T23:54:58;17.30;99.90
52531;DHT22;38441;52.894;6.040;2023-07-29T23:57:23;17.00;99.90
52531;DHT22;38441;52.894;6.040;2023-07-29T23:59:49;17.00;99.90
